sensor_id;sensor_type;location;lat;lon;timestamp;temperature;humidity
53053;DHT22;38934;52.690;6.184;2023-12-07T00:00:49;-0.50;99.90
53053;DHT22;38934;52.690;6.184;2023-12-07T00:03:15;-0.40;99.90
53053;DHT22;38934;52.690;6.184;2023-12-07T00:05:41;-0.40;99.90
53053;DHT22;38934;52.690;6.184;2023-12-07T00:08:09;-0.50;99.90
53053;DHT22;38934;52.690;6.184;2023-12-07T00:10:36;-0.50;99.90
53053;DHT22;38934;52.690;6.184;2023-12-07T00:13:02;-0.50;99.90
53053;DHT22;38934;52.690;6.184;2023-12-07T00:15:28;-0.50;99.90
53053;DHT22;38934;52.690;6.184;2023-12-07T00:17:53;-0.60;99.90
53053;DHT22;38934;52.690;6.184;2023-12-07T00:20:19;-0.50;99.90
53053;DHT22;38934;52.690;6.184;2023-12-07T00:22:45;-0.60;99.90
53053;DHT22;38934;52.690;6.184;2023-12-07T00:25:11;-0.50;99.90
53053;DHT22;38934;52.690;6.184;2023-12-07T00:27:36;-0.50;99.90
53053;DHT22;38934;52.690;6.184;2023-12-07T00:30:02;-0.40;99.90
53053;DHT22;38934;52.690;6.184;2023-12-07T00:32:29;-0.50;99.90
53053;DHT22;38934;52.690;6.184;2023-12-07T00:34:54;-0.30;99.90
53053;DHT22;38934;52.690;6.184;2023-12-07T00:37:20;-0.40;99.90
53053;DHT22;38934;52.690;6.184;2023-12-07T00:39:46;-0.30;99.90
53053;DHT22;38934;52.690;6.184;2023-12-07T00:42:11;-0.40;99.90
53053;DHT22;38934;52.690;6.184;2023-12-07T00:44:40;-0.40;99.90
53053;DHT22;38934;52.690;6.184;2023-12-07T00:47:06;-0.40;99.90
53053;DHT22;38934;52.690;6.184;2023-12-07T00:49:32;-0.30;99.90
53053;DHT22;38934;52.690;6.184;2023-12-07T00:51:58;-0.30;99.90
53053;DHT22;38934;52.690;6.184;2023-12-07T00:54:23;-0.30;99.90
53053;DHT22;38934;52.690;6.184;2023-12-07T00:56:49;-0.30;99.90
53053;DHT22;38934;52.690;6.184;2023-12-07T00:59:14;-0.30;99.90
53053;DHT22;38934;52.690;6.184;2023-12-07T01:01:40;-0.30;99.90
53053;DHT22;38934;52.690;6.184;2023-12-07T01:04:06;-0.30;99.90
53053;DHT22;38934;52.690;6.184;2023-12-07T01:06:31;-0.30;99.90
53053;DHT22;38934;52.690;6.184;2023-12-07T01:08:57;-0.30;99.90
53053;DHT22;38934;52.690;6.184;2023-12-07T01:11:23;-0.30;99.90
53053;DHT22;38934;52.690;6.184;2023-12-07T01:13:48;-0.20;99.90
53053;DHT22;38934;52.690;6.184;2023-12-07T01:16:14;-0.20;99.90
53053;DHT22;38934;52.690;6.184;2023-12-07T01:18:40;-0.20;99.90
53053;DHT22;38934;52.690;6.184;2023-12-07T01:21:06;-0.20;99.90
53053;DHT22;38934;52.690;6.184;2023-12-07T01:23:32;-0.10;99.90
53053;DHT22;38934;52.690;6.184;2023-12-07T01:25:57;-0.10;99.90
53053;DHT22;38934;52.690;6.184;2023-12-07T01:28:25;-0.10;99.90
53053;DHT22;38934;52.690;6.184;2023-12-07T01:30:51;-0.10;99.90
53053;DHT22;38934;52.690;6.184;2023-12-07T01:33:16;-0.10;99.90
53053;DHT22;38934;52.690;6.184;2023-12-07T01:35:42;-0.10;99.90
53053;DHT22;38934;52.690;6.184;2023-12-07T01:38:08;-0.10;99.90
53053;DHT22;38934;52.690;6.184;2023-12-07T01:40:34;-0.10;99.90
53053;DHT22;38934;52.690;6.184;2023-12-07T01:43:00;-0.10;99.90
53053;DHT22;38934;52.690;6.184;2023-12-07T01:45:25;-0.10;99.90
53053;DHT22;38934;52.690;6.184;2023-12-07T01:47:52;-0.10;99.90
53053;DHT22;38934;52.690;6.184;2023-12-07T01:50:20;-0.10;99.90
53053;DHT22;38934;52.690;6.184;2023-12-07T01:52:51;-0.10;99.90
53053;DHT22;38934;52.690;6.184;2023-12-07T01:55:18;-0.20;99.90
53053;DHT22;38934;52.690;6.184;2023-12-07T01:57:45;-0.30;99.90
53053;DHT22;38934;52.690;6.184;2023-12-07T02:00:12;-0.30;99.90
53053;DHT22;38934;52.690;6.184;2023-12-07T02:02:39;-0.30;99.90
53053;DHT22;38934;52.690;6.184;2023-12-07T02:05:05;-0.30;99.90
53053;DHT22;38934;52.690;6.184;2023-12-07T02:07:31;-0.30;99.90
53053;DHT22;38934;52.690;6.184;2023-12-07T02:10:00;-0.40;99.90
53053;DHT22;38934;52.690;6.184;2023-12-07T02:12:26;-0.20;99.90
53053;DHT22;38934;52.690;6.184;2023-12-07T02:14:55;-0.40;99.90
53053;DHT22;38934;52.690;6.184;2023-12-07T02:17:33;-0.40;99.90
53053;DHT22;38934;52.690;6.184;2023-12-07T02:20:01;-0.50;99.90
53053;DHT22;38934;52.690;6.184;2023-12-07T02:22:39;-0.50;99.90
53053;DHT22;38934;52.690;6.184;2023-12-07T02:25:07;-0.50;99.90
53053;DHT22;38934;52.690;6.184;2023-12-07T02:27:41;-0.60;99.90
53053;DHT22;38934;52.690;6.184;2023-12-07T02:30:09;-0.60;99.90
53053;DHT22;38934;52.690;6.184;2023-12-07T02:32:40;-0.60;99.90
53053;DHT22;38934;52.690;6.184;2023-12-07T02:35:06;-0.70;99.90
53053;DHT22;38934;52.690;6.184;2023-12-07T02:37:41;-0.70;99.90
53053;DHT22;38934;52.690;6.184;2023-12-07T02:40:07;-0.60;99.90
53053;DHT22;38934;52.690;6.184;2023-12-07T02:42:40;-0.70;99.90
53053;DHT22;38934;52.690;6.184;2023-12-07T02:45:08;-0.70;99.90
53053;DHT22;38934;52.690;6.184;2023-12-07T02:47:35;-0.70;99.90
53053;DHT22;38934;52.690;6.184;2023-12-07T02:50:01;-0.60;99.90
53053;DHT22;38934;52.690;6.184;2023-12-07T02:52:26;-0.60;99.90
53053;DHT22;38934;52.690;6.184;2023-12-07T02:54:52;-0.70;99.90
53053;DHT22;38934;52.690;6.184;2023-12-07T02:57:18;-0.70;99.90
53053;DHT22;38934;52.690;6.184;2023-12-07T02:59:43;-0.70;99.90
53053;DHT22;38934;52.690;6.184;2023-12-07T03:02:09;-0.70;99.90
53053;DHT22;38934;52.690;6.184;2023-12-07T03:04:34;-0.70;99.90
53053;DHT22;38934;52.690;6.184;2023-12-07T03:07:00;-0.60;99.90
53053;DHT22;38934;52.690;6.184;2023-12-07T03:09:25;-0.70;99.90
53053;DHT22;38934;52.690;6.184;2023-12-07T03:11:51;-0.70;99.90
53053;DHT22;38934;52.690;6.184;2023-12-07T03:14:17;-0.80;99.90
53053;DHT22;38934;52.690;6.184;2023-12-07T03:16:45;-0.80;99.90
53053;DHT22;38934;52.690;6.184;2023-12-07T03:19:10;-0.80;99.90
53053;DHT22;38934;52.690;6.184;2023-12-07T03:21:39;-0.70;99.90
53053;DHT22;38934;52.690;6.184;2023-12-07T03:24:06;-0.10;99.90
53053;DHT22;38934;52.690;6.184;2023-12-07T03:26:32;-0.80;99.90
53053;DHT22;38934;52.690;6.184;2023-12-07T03:28:57;-0.80;99.90
53053;DHT22;38934;52.690;6.184;2023-12-07T03:31:23;-0.80;99.90
53053;DHT22;38934;52.690;6.184;2023-12-07T03:33:48;-0.80;99.90
53053;DHT22;38934;52.690;6.184;2023-12-07T03:36:14;-0.90;99.90
53053;DHT22;38934;52.690;6.184;2023-12-07T03:38:40;-0.90;99.90
53053;DHT22;38934;52.690;6.184;2023-12-07T03:41:05;-0.90;99.90
53053;DHT22;38934;52.690;6.184;2023-12-07T03:43:31;-0.80;99.90
53053;DHT22;38934;52.690;6.184;2023-12-07T03:45:56;-0.80;99.90
53053;DHT22;38934;52.690;6.184;2023-12-07T03:48:22;-0.80;99.90
53053;DHT22;38934;52.690;6.184;2023-12-07T03:50:47;-0.80;99.90
53053;DHT22;38934;52.690;6.184;2023-12-07T03:53:13;-0.70;99.90
53053;DHT22;38934;52.690;6.184;2023-12-07T03:55:39;-0.80;99.90
53053;DHT22;38934;52.690;6.184;2023-12-07T03:58:05;-0.70;99.90
53053;DHT22;38934;52.690;6.184;2023-12-07T04:00:32;-0.70;99.90
53053;DHT22;38934;52.690;6.184;2023-12-07T04:02:58;-0.70;99.90
53053;DHT22;38934;52.690;6.184;2023-12-07T04:05:23;-0.60;99.90
53053;DHT22;38934;52.690;6.184;2023-12-07T04:07:49;-0.60;99.90
53053;DHT22;38934;52.690;6.184;2023-12-07T04:10:14;-0.60;99.90
53053;DHT22;38934;52.690;6.184;2023-12-07T04:12:40;-0.50;99.90
53053;DHT22;38934;52.690;6.184;2023-12-07T04:15:06;-0.50;99.90
53053;DHT22;38934;52.690;6.184;2023-12-07T04:17:32;-0.40;99.90
53053;DHT22;38934;52.690;6.184;2023-12-07T04:19:58;-0.50;99.90
53053;DHT22;38934;52.690;6.184;2023-12-07T04:22:23;-0.40;99.90
53053;DHT22;38934;52.690;6.184;2023-12-07T04:24:49;-0.40;99.90
53053;DHT22;38934;52.690;6.184;2023-12-07T04:27:15;-0.40;99.90
53053;DHT22;38934;52.690;6.184;2023-12-07T04:29:40;-0.40;99.90
53053;DHT22;38934;52.690;6.184;2023-12-07T04:32:07;-0.30;99.90
53053;DHT22;38934;52.690;6.184;2023-12-07T04:34:33;-0.40;99.90
53053;DHT22;38934;52.690;6.184;2023-12-07T04:36:58;-0.30;99.90
53053;DHT22;38934;52.690;6.184;2023-12-07T04:39:24;-0.20;99.90
53053;DHT22;38934;52.690;6.184;2023-12-07T04:41:50;-0.30;99.90
53053;DHT22;38934;52.690;6.184;2023-12-07T04:44:16;-0.20;99.90
53053;DHT22;38934;52.690;6.184;2023-12-07T04:46:42;-0.20;99.90
53053;DHT22;38934;52.690;6.184;2023-12-07T04:49:08;-0.10;99.90
53053;DHT22;38934;52.690;6.184;2023-12-07T04:51:34;-0.20;99.90
53053;DHT22;38934;52.690;6.184;2023-12-07T04:54:00;-0.10;99.90
53053;DHT22;38934;52.690;6.184;2023-12-07T04:56:25;-0.10;99.90
53053;DHT22;38934;52.690;6.184;2023-12-07T04:58:51;0.00;99.90
53053;DHT22;38934;52.690;6.184;2023-12-07T05:01:16;0.10;99.90
53053;DHT22;38934;52.690;6.184;2023-12-07T05:03:44;0.10;99.90
53053;DHT22;38934;52.690;6.184;2023-12-07T05:06:10;0.00;99.90
53053;DHT22;38934;52.690;6.184;2023-12-07T05:08:35;0.00;99.90
53053;DHT22;38934;52.690;6.184;2023-12-07T05:11:01;0.10;99.90
53053;DHT22;38934;52.690;6.184;2023-12-07T05:13:27;0.10;99.90
53053;DHT22;38934;52.690;6.184;2023-12-07T05:15:52;0.10;99.90
53053;DHT22;38934;52.690;6.184;2023-12-07T05:18:18;0.10;99.90
53053;DHT22;38934;52.690;6.184;2023-12-07T05:20:44;0.10;99.90
53053;DHT22;38934;52.690;6.184;2023-12-07T05:23:09;0.00;99.90
53053;DHT22;38934;52.690;6.184;2023-12-07T05:25:35;0.10;99.90
53053;DHT22;38934;52.690;6.184;2023-12-07T05:28:01;-0.10;99.90
53053;DHT22;38934;52.690;6.184;2023-12-07T05:30:26;-0.10;99.90
53053;DHT22;38934;52.690;6.184;2023-12-07T05:32:53;-0.20;99.90
53053;DHT22;38934;52.690;6.184;2023-12-07T05:35:19;-0.20;99.90
53053;DHT22;38934;52.690;6.184;2023-12-07T05:37:45;-0.20;99.90
53053;DHT22;38934;52.690;6.184;2023-12-07T05:40:11;-0.20;99.90
53053;DHT22;38934;52.690;6.184;2023-12-07T05:42:40;-0.30;99.90
53053;DHT22;38934;52.690;6.184;2023-12-07T05:45:06;-0.30;99.90
53053;DHT22;38934;52.690;6.184;2023-12-07T05:47:32;-0.30;99.90
53053;DHT22;38934;52.690;6.184;2023-12-07T05:49:58;-0.40;99.90
53053;DHT22;38934;52.690;6.184;2023-12-07T05:52:25;-0.40;99.90
53053;DHT22;38934;52.690;6.184;2023-12-07T05:54:51;-0.50;99.90
53053;DHT22;38934;52.690;6.184;2023-12-07T05:57:16;-0.60;99.90
53053;DHT22;38934;52.690;6.184;2023-12-07T05:59:42;-0.60;99.90
53053;DHT22;38934;52.690;6.184;2023-12-07T06:02:08;-0.60;99.90
53053;DHT22;38934;52.690;6.184;2023-12-07T06:04:34;-0.70;99.90
53053;DHT22;38934;52.690;6.184;2023-12-07T06:07:00;-0.70;99.90
53053;DHT22;38934;52.690;6.184;2023-12-07T06:09:25;-0.70;99.90
53053;DHT22;38934;52.690;6.184;2023-12-07T06:11:51;-0.70;99.90
53053;DHT22;38934;52.690;6.184;2023-12-07T06:14:17;-0.70;99.90
53053;DHT22;38934;52.690;6.184;2023-12-07T06:16:42;-0.80;99.90
53053;DHT22;38934;52.690;6.184;2023-12-07T06:19:08;-0.80;99.90
53053;DHT22;38934;52.690;6.184;2023-12-07T06:21:33;-0.90;99.90
53053;DHT22;38934;52.690;6.184;2023-12-07T06:23:59;-0.90;99.90
53053;DHT22;38934;52.690;6.184;2023-12-07T06:26:25;-0.90;99.90
53053;DHT22;38934;52.690;6.184;2023-12-07T06:28:51;-0.90;99.90
53053;DHT22;38934;52.690;6.184;2023-12-07T06:31:17;-1.00;99.90
53053;DHT22;38934;52.690;6.184;2023-12-07T06:33:47;-1.00;99.90
53053;DHT22;38934;52.690;6.184;2023-12-07T06:36:21;-1.00;99.90
53053;DHT22;38934;52.690;6.184;2023-12-07T06:38:47;-1.10;99.90
53053;DHT22;38934;52.690;6.184;2023-12-07T06:41:14;-1.10;99.90
53053;DHT22;38934;52.690;6.184;2023-12-07T06:43:39;-1.10;99.90
53053;DHT22;38934;52.690;6.184;2023-12-07T06:46:05;-1.20;99.90
53053;DHT22;38934;52.690;6.184;2023-12-07T06:48:31;-1.20;99.90
53053;DHT22;38934;52.690;6.184;2023-12-07T06:50:57;-1.20;99.90
53053;DHT22;38934;52.690;6.184;2023-12-07T06:53:22;-1.20;99.90
53053;DHT22;38934;52.690;6.184;2023-12-07T06:55:48;-1.20;99.90
53053;DHT22;38934;52.690;6.184;2023-12-07T06:58:13;-1.30;99.90
53053;DHT22;38934;52.690;6.184;2023-12-07T07:00:39;-1.30;99.90
53053;DHT22;38934;52.690;6.184;2023-12-07T07:03:04;-1.30;99.90
53053;DHT22;38934;52.690;6.184;2023-12-07T07:05:31;-1.30;99.90
53053;DHT22;38934;52.690;6.184;2023-12-07T07:07:57;-1.30;99.90
53053;DHT22;38934;52.690;6.184;2023-12-07T07:10:23;-1.30;99.90
53053;DHT22;38934;52.690;6.184;2023-12-07T07:12:50;-1.30;99.90
53053;DHT22;38934;52.690;6.184;2023-12-07T07:15:15;-1.20;99.90
53053;DHT22;38934;52.690;6.184;2023-12-07T07:17:41;-1.20;99.90
53053;DHT22;38934;52.690;6.184;2023-12-07T07:20:07;-1.20;99.90
53053;DHT22;38934;52.690;6.184;2023-12-07T07:22:33;-1.20;99.90
53053;DHT22;38934;52.690;6.184;2023-12-07T07:25:00;-0.60;99.90
53053;DHT22;38934;52.690;6.184;2023-12-07T07:27:25;-1.20;99.90
53053;DHT22;38934;52.690;6.184;2023-12-07T07:29:51;-1.10;99.90
53053;DHT22;38934;52.690;6.184;2023-12-07T07:32:17;-1.10;99.90
53053;DHT22;38934;52.690;6.184;2023-12-07T07:34:43;-1.20;99.90
53053;DHT22;38934;52.690;6.184;2023-12-07T07:37:08;-1.20;99.90
53053;DHT22;38934;52.690;6.184;2023-12-07T07:39:34;-1.20;99.90
53053;DHT22;38934;52.690;6.184;2023-12-07T07:42:00;-1.20;99.90
53053;DHT22;38934;52.690;6.184;2023-12-07T07:44:26;-1.20;99.90
53053;DHT22;38934;52.690;6.184;2023-12-07T07:46:52;-1.10;99.90
53053;DHT22;38934;52.690;6.184;2023-12-07T07:49:17;-1.20;99.90
53053;DHT22;38934;52.690;6.184;2023-12-07T07:51:43;-1.10;99.90
53053;DHT22;38934;52.690;6.184;2023-12-07T07:54:08;-1.10;99.90
53053;DHT22;38934;52.690;6.184;2023-12-07T07:56:34;-1.10;99.90
53053;DHT22;38934;52.690;6.184;2023-12-07T07:59:01;-1.10;99.90
53053;DHT22;38934;52.690;6.184;2023-12-07T08:01:26;-1.10;99.90
53053;DHT22;38934;52.690;6.184;2023-12-07T08:03:52;-1.10;99.90
53053;DHT22;38934;52.690;6.184;2023-12-07T08:06:18;-1.10;99.90
53053;DHT22;38934;52.690;6.184;2023-12-07T08:08:44;-1.10;99.90
53053;DHT22;38934;52.690;6.184;2023-12-07T08:11:10;-1.00;99.90
53053;DHT22;38934;52.690;6.184;2023-12-07T08:13:35;-1.00;99.90
53053;DHT22;38934;52.690;6.184;2023-12-07T08:16:01;-1.00;99.90
53053;DHT22;38934;52.690;6.184;2023-12-07T08:18:27;-1.00;99.90
53053;DHT22;38934;52.690;6.184;2023-12-07T08:20:52;-0.90;99.90
53053;DHT22;38934;52.690;6.184;2023-12-07T08:23:18;-0.90;99.90
53053;DHT22;38934;52.690;6.184;2023-12-07T08:25:44;-0.80;99.90
53053;DHT22;38934;52.690;6.184;2023-12-07T08:28:10;-0.70;99.90
53053;DHT22;38934;52.690;6.184;2023-12-07T08:30:36;-0.80;99.90
53053;DHT22;38934;52.690;6.184;2023-12-07T08:33:01;-0.70;99.90
53053;DHT22;38934;52.690;6.184;2023-12-07T08:35:27;-0.70;99.90
53053;DHT22;38934;52.690;6.184;2023-12-07T08:37:53;-0.70;99.90
53053;DHT22;38934;52.690;6.184;2023-12-07T08:40:19;-0.60;99.90
53053;DHT22;38934;52.690;6.184;2023-12-07T08:42:45;-0.70;99.90
53053;DHT22;38934;52.690;6.184;2023-12-07T08:45:11;-0.60;99.90
53053;DHT22;38934;52.690;6.184;2023-12-07T08:47:39;-0.50;99.90
53053;DHT22;38934;52.690;6.184;2023-12-07T08:50:05;-0.50;99.90
53053;DHT22;38934;52.690;6.184;2023-12-07T08:52:33;-0.40;99.90
53053;DHT22;38934;52.690;6.184;2023-12-07T08:54:59;0.40;99.90
53053;DHT22;38934;52.690;6.184;2023-12-07T08:57:25;-0.30;99.90
53053;DHT22;38934;52.690;6.184;2023-12-07T08:59:50;-0.30;99.90
53053;DHT22;38934;52.690;6.184;2023-12-07T09:02:16;-0.30;99.90
53053;DHT22;38934;52.690;6.184;2023-12-07T09:04:42;-0.10;99.90
53053;DHT22;38934;52.690;6.184;2023-12-07T09:07:08;-0.10;99.90
53053;DHT22;38934;52.690;6.184;2023-12-07T09:09:35;-0.10;99.90
53053;DHT22;38934;52.690;6.184;2023-12-07T09:12:01;-0.10;99.90
53053;DHT22;38934;52.690;6.184;2023-12-07T09:14:26;0.00;99.90
53053;DHT22;38934;52.690;6.184;2023-12-07T09:16:52;-0.10;99.90
53053;DHT22;38934;52.690;6.184;2023-12-07T09:19:19;0.00;99.90
53053;DHT22;38934;52.690;6.184;2023-12-07T09:21:45;0.00;99.90
53053;DHT22;38934;52.690;6.184;2023-12-07T09:24:11;0.00;99.90
53053;DHT22;38934;52.690;6.184;2023-12-07T09:26:36;0.10;99.90
53053;DHT22;38934;52.690;6.184;2023-12-07T09:29:02;0.10;99.90
53053;DHT22;38934;52.690;6.184;2023-12-07T09:31:28;0.00;99.90
53053;DHT22;38934;52.690;6.184;2023-12-07T09:33:54;0.10;99.90
53053;DHT22;38934;52.690;6.184;2023-12-07T09:36:19;0.10;99.90
53053;DHT22;38934;52.690;6.184;2023-12-07T09:38:47;0.10;99.90
53053;DHT22;38934;52.690;6.184;2023-12-07T09:41:12;0.20;99.90
53053;DHT22;38934;52.690;6.184;2023-12-07T09:43:39;0.10;99.90
53053;DHT22;38934;52.690;6.184;2023-12-07T09:46:05;0.10;99.90
53053;DHT22;38934;52.690;6.184;2023-12-07T09:48:32;0.20;99.90
53053;DHT22;38934;52.690;6.184;2023-12-07T09:51:00;0.20;99.90
53053;DHT22;38934;52.690;6.184;2023-12-07T09:53:29;0.20;99.90
53053;DHT22;38934;52.690;6.184;2023-12-07T09:55:54;0.30;99.90
53053;DHT22;38934;52.690;6.184;2023-12-07T09:58:20;0.30;99.90
53053;DHT22;38934;52.690;6.184;2023-12-07T10:00:49;0.30;99.90
53053;DHT22;38934;52.690;6.184;2023-12-07T10:03:22;0.30;99.90
53053;DHT22;38934;52.690;6.184;2023-12-07T10:05:55;0.30;99.90
53053;DHT22;38934;52.690;6.184;2023-12-07T10:08:29;0.40;99.90
53053;DHT22;38934;52.690;6.184;2023-12-07T10:13:46;0.40;99.90
53053;DHT22;38934;52.690;6.184;2023-12-07T10:16:14;0.40;99.90
53053;DHT22;38934;52.690;6.184;2023-12-07T10:18:41;0.40;99.90
53053;DHT22;38934;52.690;6.184;2023-12-07T10:21:10;0.40;99.90
53053;DHT22;38934;52.690;6.184;2023-12-07T10:23:37;0.40;99.90
53053;DHT22;38934;52.690;6.184;2023-12-07T10:26:05;0.40;99.90
53053;DHT22;38934;52.690;6.184;2023-12-07T10:28:30;0.40;99.90
53053;DHT22;38934;52.690;6.184;2023-12-07T10:30:57;0.40;99.90
53053;DHT22;38934;52.690;6.184;2023-12-07T10:33:23;0.40;99.90
53053;DHT22;38934;52.690;6.184;2023-12-07T10:35:48;0.40;99.90
53053;DHT22;38934;52.690;6.184;2023-12-07T10:38:14;0.60;99.90
53053;DHT22;38934;52.690;6.184;2023-12-07T10:40:40;0.50;99.90
53053;DHT22;38934;52.690;6.184;2023-12-07T10:43:07;0.50;99.90
53053;DHT22;38934;52.690;6.184;2023-12-07T10:45:33;0.50;99.90
53053;DHT22;38934;52.690;6.184;2023-12-07T10:48:05;0.50;99.90
53053;DHT22;38934;52.690;6.184;2023-12-07T10:50:34;0.40;99.90
53053;DHT22;38934;52.690;6.184;2023-12-07T10:53:04;0.50;99.90
53053;DHT22;38934;52.690;6.184;2023-12-07T10:55:38;0.50;99.90
53053;DHT22;38934;52.690;6.184;2023-12-07T10:58:07;0.60;99.90
53053;DHT22;38934;52.690;6.184;2023-12-07T11:00:34;0.60;99.90
53053;DHT22;38934;52.690;6.184;2023-12-07T11:03:00;0.60;99.90
53053;DHT22;38934;52.690;6.184;2023-12-07T11:05:27;0.60;99.90
53053;DHT22;38934;52.690;6.184;2023-12-07T11:08:07;0.70;99.90
53053;DHT22;38934;52.690;6.184;2023-12-07T11:10:42;0.70;99.90
53053;DHT22;38934;52.690;6.184;2023-12-07T11:13:27;0.70;99.90
53053;DHT22;38934;52.690;6.184;2023-12-07T11:15:55;0.70;99.90
53053;DHT22;38934;52.690;6.184;2023-12-07T11:18:21;0.70;99.90
53053;DHT22;38934;52.690;6.184;2023-12-07T11:20:46;0.70;99.90
53053;DHT22;38934;52.690;6.184;2023-12-07T11:23:17;0.90;99.90
53053;DHT22;38934;52.690;6.184;2023-12-07T11:25:45;0.80;99.90
53053;DHT22;38934;52.690;6.184;2023-12-07T11:28:12;0.80;99.90
53053;DHT22;38934;52.690;6.184;2023-12-07T11:30:38;0.90;99.90
53053;DHT22;38934;52.690;6.184;2023-12-07T11:33:07;0.80;99.90
53053;DHT22;38934;52.690;6.184;2023-12-07T11:35:33;0.90;99.90
53053;DHT22;38934;52.690;6.184;2023-12-07T11:38:08;0.90;99.90
53053;DHT22;38934;52.690;6.184;2023-12-07T11:40:43;0.90;99.90
53053;DHT22;38934;52.690;6.184;2023-12-07T11:43:17;0.90;99.90
53053;DHT22;38934;52.690;6.184;2023-12-07T11:45:49;0.90;99.90
53053;DHT22;38934;52.690;6.184;2023-12-07T11:48:16;0.90;99.90
53053;DHT22;38934;52.690;6.184;2023-12-07T11:50:54;1.00;99.90
53053;DHT22;38934;52.690;6.184;2023-12-07T11:53:22;1.00;99.90
53053;DHT22;38934;52.690;6.184;2023-12-07T11:55:48;1.10;99.90
53053;DHT22;38934;52.690;6.184;2023-12-07T11:58:14;0.90;99.90
53053;DHT22;38934;52.690;6.184;2023-12-07T12:00:40;0.90;99.90
53053;DHT22;38934;52.690;6.184;2023-12-07T12:03:06;1.00;99.90
53053;DHT22;38934;52.690;6.184;2023-12-07T12:05:31;1.00;99.90
53053;DHT22;38934;52.690;6.184;2023-12-07T12:07:57;0.90;99.90
53053;DHT22;38934;52.690;6.184;2023-12-07T12:10:23;0.90;99.90
53053;DHT22;38934;52.690;6.184;2023-12-07T12:12:51;0.90;99.90
53053;DHT22;38934;52.690;6.184;2023-12-07T12:15:18;0.90;99.90
53053;DHT22;38934;52.690;6.184;2023-12-07T12:17:45;0.90;99.90
53053;DHT22;38934;52.690;6.184;2023-12-07T12:20:13;0.90;99.90
53053;DHT22;38934;52.690;6.184;2023-12-07T12:22:43;2.00;99.90
53053;DHT22;38934;52.690;6.184;2023-12-07T12:25:08;0.90;99.90
53053;DHT22;38934;52.690;6.184;2023-12-07T12:27:35;0.90;99.90
53053;DHT22;38934;52.690;6.184;2023-12-07T12:30:01;0.90;99.90
53053;DHT22;38934;52.690;6.184;2023-12-07T12:32:27;0.90;99.90
53053;DHT22;38934;52.690;6.184;2023-12-07T12:34:53;1.40;99.90
53053;DHT22;38934;52.690;6.184;2023-12-07T12:37:18;1.00;99.90
53053;DHT22;38934;52.690;6.184;2023-12-07T12:39:44;1.00;99.90
53053;DHT22;38934;52.690;6.184;2023-12-07T12:42:10;1.00;99.90
53053;DHT22;38934;52.690;6.184;2023-12-07T12:44:37;1.00;99.90
53053;DHT22;38934;52.690;6.184;2023-12-07T12:47:07;1.00;99.90
53053;DHT22;38934;52.690;6.184;2023-12-07T12:49:37;1.10;99.90
53053;DHT22;38934;52.690;6.184;2023-12-07T12:52:05;1.10;99.90
53053;DHT22;38934;52.690;6.184;2023-12-07T12:54:34;1.10;99.90
53053;DHT22;38934;52.690;6.184;2023-12-07T12:57:01;1.10;99.90
53053;DHT22;38934;52.690;6.184;2023-12-07T12:59:27;1.20;99.90
53053;DHT22;38934;52.690;6.184;2023-12-07T13:01:52;1.20;99.90
53053;DHT22;38934;52.690;6.184;2023-12-07T13:04:18;1.20;99.90
53053;DHT22;38934;52.690;6.184;2023-12-07T13:06:45;1.30;99.90
53053;DHT22;38934;52.690;6.184;2023-12-07T13:09:11;1.20;99.90
53053;DHT22;38934;52.690;6.184;2023-12-07T13:11:36;1.70;99.90
53053;DHT22;38934;52.690;6.184;2023-12-07T13:14:02;1.20;99.90
53053;DHT22;38934;52.690;6.184;2023-12-07T13:16:32;1.20;99.90
53053;DHT22;38934;52.690;6.184;2023-12-07T13:18:58;1.20;99.90
53053;DHT22;38934;52.690;6.184;2023-12-07T13:21:24;1.20;99.90
53053;DHT22;38934;52.690;6.184;2023-12-07T13:23:49;1.20;99.90
53053;DHT22;38934;52.690;6.184;2023-12-07T13:26:15;1.20;99.90
53053;DHT22;38934;52.690;6.184;2023-12-07T13:28:41;1.20;99.90
53053;DHT22;38934;52.690;6.184;2023-12-07T13:31:06;1.20;99.90
53053;DHT22;38934;52.690;6.184;2023-12-07T13:33:32;0.20;99.90
53053;DHT22;38934;52.690;6.184;2023-12-07T13:35:57;1.20;99.90
53053;DHT22;38934;52.690;6.184;2023-12-07T13:38:26;1.20;99.90
53053;DHT22;38934;52.690;6.184;2023-12-07T13:40:56;1.30;99.90
53053;DHT22;38934;52.690;6.184;2023-12-07T13:43:21;1.20;99.90
53053;DHT22;38934;52.690;6.184;2023-12-07T13:45:49;1.30;99.90
53053;DHT22;38934;52.690;6.184;2023-12-07T13:48:15;1.30;99.90
53053;DHT22;38934;52.690;6.184;2023-12-07T13:50:41;1.30;99.90
53053;DHT22;38934;52.690;6.184;2023-12-07T13:53:07;1.30;99.90
53053;DHT22;38934;52.690;6.184;2023-12-07T13:55:36;1.30;99.90
53053;DHT22;38934;52.690;6.184;2023-12-07T13:58:03;1.30;99.90
53053;DHT22;38934;52.690;6.184;2023-12-07T14:00:28;1.30;99.90
53053;DHT22;38934;52.690;6.184;2023-12-07T14:02:54;1.30;99.90
53053;DHT22;38934;52.690;6.184;2023-12-07T14:05:20;1.30;99.90
53053;DHT22;38934;52.690;6.184;2023-12-07T14:07:46;1.40;99.90
53053;DHT22;38934;52.690;6.184;2023-12-07T14:10:11;1.30;99.90
53053;DHT22;38934;52.690;6.184;2023-12-07T14:12:37;1.30;99.90
53053;DHT22;38934;52.690;6.184;2023-12-07T14:15:03;1.40;99.90
53053;DHT22;38934;52.690;6.184;2023-12-07T14:17:29;1.40;99.90
53053;DHT22;38934;52.690;6.184;2023-12-07T14:20:03;1.40;99.90
53053;DHT22;38934;52.690;6.184;2023-12-07T14:22:29;1.30;99.90
53053;DHT22;38934;52.690;6.184;2023-12-07T14:24:55;1.40;99.90
53053;DHT22;38934;52.690;6.184;2023-12-07T14:27:21;1.40;99.90
53053;DHT22;38934;52.690;6.184;2023-12-07T14:29:46;1.30;99.90
53053;DHT22;38934;52.690;6.184;2023-12-07T14:32:12;1.40;99.90
53053;DHT22;38934;52.690;6.184;2023-12-07T14:34:37;1.40;99.90
53053;DHT22;38934;52.690;6.184;2023-12-07T14:37:03;1.40;99.90
53053;DHT22;38934;52.690;6.184;2023-12-07T14:39:34;1.40;99.90
53053;DHT22;38934;52.690;6.184;2023-12-07T14:42:00;1.40;99.90
53053;DHT22;38934;52.690;6.184;2023-12-07T14:44:26;1.40;99.90
53053;DHT22;38934;52.690;6.184;2023-12-07T14:46:52;1.30;99.90
53053;DHT22;38934;52.690;6.184;2023-12-07T14:49:18;1.40;99.90
53053;DHT22;38934;52.690;6.184;2023-12-07T14:51:47;1.30;99.90
53053;DHT22;38934;52.690;6.184;2023-12-07T14:54:12;1.40;99.90
53053;DHT22;38934;52.690;6.184;2023-12-07T14:56:39;1.40;99.90
53053;DHT22;38934;52.690;6.184;2023-12-07T14:59:07;1.30;99.90
53053;DHT22;38934;52.690;6.184;2023-12-07T15:01:37;1.40;99.90
53053;DHT22;38934;52.690;6.184;2023-12-07T15:04:04;1.40;99.90
53053;DHT22;38934;52.690;6.184;2023-12-07T15:06:30;2.00;99.90
53053;DHT22;38934;52.690;6.184;2023-12-07T15:08:56;1.40;99.90
53053;DHT22;38934;52.690;6.184;2023-12-07T15:11:22;1.30;99.90
53053;DHT22;38934;52.690;6.184;2023-12-07T15:13:48;1.30;99.90
53053;DHT22;38934;52.690;6.184;2023-12-07T15:16:13;2.20;99.90
53053;DHT22;38934;52.690;6.184;2023-12-07T15:18:40;1.40;99.90
53053;DHT22;38934;52.690;6.184;2023-12-07T15:21:13;1.40;99.90
53053;DHT22;38934;52.690;6.184;2023-12-07T15:23:42;1.40;99.90
53053;DHT22;38934;52.690;6.184;2023-12-07T15:26:11;1.40;99.90
53053;DHT22;38934;52.690;6.184;2023-12-07T15:28:38;1.40;99.90
53053;DHT22;38934;52.690;6.184;2023-12-07T15:31:04;1.40;99.90
53053;DHT22;38934;52.690;6.184;2023-12-07T15:33:31;1.60;99.90
53053;DHT22;38934;52.690;6.184;2023-12-07T15:35:58;1.50;99.90